Time;durP1;ratioP1;P1;durP2;ratioP2;P2;SDS_P1;SDS_P2;PMS_P1;PMS_P2;Temp;Humidity;BMP_temperature;BMP_pressure;BME280_temperature;BME280_humidity;BME280_pressure;Samples;Min_cycle;Max_cycle;Signal;HPM_P1;HPM_P2
2022/10/29 00:00:43;;;;;;;0.98;0.70;;;12.60;99.90;;;;;;4988374;28;20446;-77
2022/10/29 00:03:10;;;;;;;1.23;0.70;;;12.60;99.90;;;;;;5003778;28;20045;-78
2022/10/29 00:05:37;;;;;;;1.67;0.85;;;12.60;99.90;;;;;;5038385;28;20049;-78
2022/10/29 00:08:04;;;;;;;1.05;0.80;;;12.60;99.90;;;;;;5023876;28;20420;-78
2022/10/29 00:10:31;;;;;;;1.10;0.60;;;12.50;99.90;;;;;;5041300;28;20048;-78
2022/10/29 00:13:02;;;;;;;1.25;0.70;;;12.50;99.90;;;;;;5024525;28;20053;-78
2022/10/29 00:15:28;;;;;;;1.00;0.57;;;12.60;99.90;;;;;;5004835;28;20061;-78
2022/10/29 00:17:55;;;;;;;0.70;0.55;;;12.50;99.90;;;;;;5020644;28;20053;-77
2022/10/29 00:20:22;;;;;;;1.10;0.73;;;12.50;99.90;;;;;;5021088;28;20587;-78
2022/10/29 00:22:52;;;;;;;1.00;0.70;;;12.60;99.90;;;;;;5038268;28;20052;-78
2022/10/29 00:25:20;;;;;;;0.60;0.60;;;12.50;99.90;;;;;;5003654;28;20438;-78
2022/10/29 00:27:47;;;;;;;0.75;0.68;;;12.50;99.90;;;;;;5018228;28;20152;-78
2022/10/29 00:30:14;;;;;;;0.65;0.55;;;12.60;99.90;;;;;;5003603;28;20437;-78
2022/10/29 00:32:41;;;;;;;1.33;0.70;;;12.60;99.90;;;;;;4999384;28;20056;-78
2022/10/29 00:35:08;;;;;;;0.90;0.70;;;12.60;99.90;;;;;;5018327;28;20055;-77
2022/10/29 00:37:34;;;;;;;1.05;0.80;;;12.60;99.90;;;;;;5023338;28;20049;-77
2022/10/29 00:40:02;;;;;;;1.02;0.90;;;12.60;99.90;;;;;;5009241;28;20195;-78
2022/10/29 00:42:29;;;;;;;1.45;0.85;;;12.60;99.90;;;;;;5008346;28;20096;-78
2022/10/29 00:44:56;;;;;;;1.77;0.90;;;12.60;99.90;;;;;;5020891;28;20049;-78
2022/10/29 00:47:31;;;;;;;1.25;0.65;;;12.70;99.90;;;;;;5044021;28;20063;-77
2022/10/29 00:50:07;;;;;;;1.60;0.65;;;12.70;99.90;;;;;;5045438;28;20369;-77
2022/10/29 00:52:33;;;;;;;1.02;0.60;;;12.70;99.90;;;;;;5008197;28;20416;-77
2022/10/29 00:55:02;;;;;;;1.63;0.82;;;12.80;99.90;;;;;;5028122;28;20080;-78
2022/10/29 00:57:35;;;;;;;1.05;0.70;;;12.80;99.90;;;;;;5011230;28;20076;-77
2022/10/29 01:00:02;;;;;;;1.38;1.10;;;12.80;99.90;;;;;;5028178;28;20140;-77
2022/10/29 01:02:29;;;;;;;2.25;0.90;;;12.90;99.90;;;;;;5018169;28;20045;-77
2022/10/29 01:04:56;;;;;;;0.82;0.40;;;12.90;99.90;;;;;;5024488;28;20524;-77
2022/10/29 01:07:23;;;;;;;1.05;0.70;;;12.90;99.90;;;;;;5006986;28;20157;-78
2022/10/29 01:09:50;;;;;;;0.88;0.60;;;13.00;99.90;;;;;;4992554;28;20095;-78
2022/10/29 01:12:39;;;;;;;1.35;0.60;;;13.00;99.90;;;;;;5019528;28;20056;-78
2022/10/29 01:15:16;;;;;;;1.85;0.70;;;13.00;99.90;;;;;;5047621;28;20049;-79
2022/10/29 01:17:52;;;;;;;0.80;0.60;;;13.10;99.90;;;;;;5030462;28;20055;-79
2022/10/29 01:20:25;;;;;;;1.15;0.70;;;13.10;99.90;;;;;;5047285;28;20516;-78
2022/10/29 01:23:09;;;;;;;1.00;0.80;;;13.20;99.90;;;;;;5046844;28;20151;-78
2022/10/29 01:26:02;;;;;;;1.48;0.73;;;13.20;99.90;;;;;;5048252;28;20411;-79
2022/10/29 01:29:00;;;;;;;2.17;0.80;;;13.20;99.90;;;;;;5046829;28;20045;-78
2022/10/29 01:31:50;;;;;;;0.77;0.50;;;13.30;99.90;;;;;;5022781;28;20140;-78
2022/10/29 01:34:46;;;;;;;1.02;0.70;;;13.40;99.90;;;;;;5040758;28;20048;-78
2022/10/29 01:37:29;;;;;;;1.10;0.45;;;13.40;99.90;;;;;;5041706;28;20458;-79
2022/10/29 01:39:58;;;;;;;0.90;0.63;;;13.40;99.90;;;;;;5029319;28;20046;-78
2022/10/29 01:42:52;;;;;;;0.82;0.57;;;13.50;99.90;;;;;;5019900;28;20551;-79
2022/10/29 01:45:23;;;;;;;0.63;0.50;;;13.50;99.90;;;;;;5012285;28;20057;-78
2022/10/29 01:47:58;;;;;;;0.95;0.60;;;13.60;99.90;;;;;;5026599;28;20378;-79
2022/10/29 01:50:25;;;;;;;1.00;0.55;;;13.60;99.90;;;;;;5010681;28;20084;-78
2022/10/29 01:52:52;;;;;;;0.68;0.50;;;13.60;99.90;;;;;;5029921;28;20049;-78
2022/10/29 01:55:19;;;;;;;0.40;0.40;;;13.60;99.90;;;;;;5027147;28;20657;-79
2022/10/29 01:57:46;;;;;;;0.93;0.55;;;13.60;99.90;;;;;;5027300;28;20412;-78
2022/10/29 02:00:18;;;;;;;0.63;0.50;;;13.70;99.90;;;;;;5027000;28;20133;-78
2022/10/29 02:02:53;;;;;;;0.40;0.40;;;13.70;99.90;;;;;;5032204;28;20057;-79
2022/10/29 02:05:39;;;;;;;1.08;0.65;;;13.70;99.90;;;;;;5047584;28;20052;-78
2022/10/29 02:08:17;;;;;;;1.15;0.60;;;13.70;99.90;;;;;;5031772;28;20051;-79
2022/10/29 02:10:51;;;;;;;1.40;0.60;;;13.70;99.90;;;;;;5030376;28;20053;-78
2022/10/29 02:13:18;;;;;;;1.48;0.70;;;13.70;99.90;;;;;;5026298;28;20053;-78
2022/10/29 02:15:47;;;;;;;0.80;0.80;;;13.70;99.90;;;;;;5027464;28;20060;-79
2022/10/29 02:18:14;;;;;;;1.35;0.65;;;13.70;99.90;;;;;;5025971;28;20252;-79
2022/10/29 02:20:41;;;;;;;0.47;0.45;;;13.80;99.90;;;;;;5026448;28;20046;-79
2022/10/29 02:23:08;;;;;;;1.50;0.68;;;13.70;99.90;;;;;;5026545;28;20049;-78
2022/10/29 02:25:34;;;;;;;1.50;0.70;;;13.80;99.90;;;;;;5010250;28;20397;-78
2022/10/29 02:28:01;;;;;;;0.65;0.50;;;13.80;99.90;;;;;;5042917;28;20148;-79
2022/10/29 02:30:28;;;;;;;1.00;0.50;;;13.80;99.90;;;;;;5026437;28;20065;-78
2022/10/29 02:32:55;;;;;;;1.05;0.93;;;13.80;99.90;;;;;;5025756;28;20056;-78
2022/10/29 02:35:22;;;;;;;0.82;0.50;;;13.80;99.90;;;;;;5025975;28;20076;-78
2022/10/29 02:37:49;;;;;;;0.68;0.40;;;13.80;99.90;;;;;;5025632;28;20167;-79
2022/10/29 02:40:16;;;;;;;0.65;0.57;;;13.80;99.90;;;;;;5026839;28;20476;-79
2022/10/29 02:42:43;;;;;;;0.95;0.65;;;13.80;99.90;;;;;;5031115;28;20099;-78
2022/10/29 02:45:10;;;;;;;0.88;0.57;;;13.80;99.90;;;;;;5013306;28;20420;-79
2022/10/29 02:47:37;;;;;;;0.52;0.47;;;13.80;99.90;;;;;;5012405;28;20075;-79
2022/10/29 02:50:05;;;;;;;0.73;0.52;;;13.90;99.90;;;;;;5013400;28;20048;-78
2022/10/29 02:52:32;;;;;;;1.48;0.70;;;13.90;99.90;;;;;;5044771;28;20509;-79
2022/10/29 02:54:59;;;;;;;1.65;0.70;;;13.90;99.90;;;;;;5013273;28;20044;-79
2022/10/29 02:57:26;;;;;;;0.93;0.55;;;13.90;99.90;;;;;;5029521;28;20602;-79
2022/10/29 02:59:52;;;;;;;1.00;0.68;;;13.90;99.90;;;;;;5046414;28;20128;-76
2022/10/29 03:02:19;;;;;;;0.85;0.50;;;13.90;99.90;;;;;;5028541;28;20405;-77
2022/10/29 03:04:46;;;;;;;1.50;0.50;;;13.90;99.90;;;;;;5029053;28;20064;-77
2022/10/29 03:07:13;;;;;;;0.85;0.60;;;14.00;99.90;;;;;;5028389;28;20071;-77
2022/10/29 03:09:39;;;;;;;0.30;0.30;;;14.00;99.90;;;;;;5012931;28;20060;-77
2022/10/29 03:12:07;;;;;;;1.55;0.60;;;14.00;99.90;;;;;;5029193;28;20048;-77
2022/10/29 03:14:34;;;;;;;0.40;0.40;;;14.00;99.90;;;;;;5029405;28;20435;-77
2022/10/29 03:17:00;;;;;;;1.20;0.82;;;14.00;99.90;;;;;;5046088;28;20448;-77
2022/10/29 03:19:27;;;;;;;0.52;0.52;;;14.10;99.90;;;;;;5013345;28;20437;-77
2022/10/29 03:21:54;;;;;;;0.40;0.40;;;14.10;99.90;;;;;;5011615;28;20053;-77
2022/10/29 03:24:21;;;;;;;0.40;0.30;;;14.10;99.90;;;;;;5009414;28;20046;-77
2022/10/29 03:26:47;;;;;;;0.57;0.40;;;14.10;99.90;;;;;;5008737;28;20056;-77
2022/10/29 03:29:14;;;;;;;0.93;0.50;;;14.10;99.90;;;;;;5025753;28;20045;-77
2022/10/29 03:31:41;;;;;;;0.43;0.30;;;14.10;99.90;;;;;;5009067;28;20049;-77
2022/10/29 03:34:08;;;;;;;0.73;0.50;;;14.20;99.90;;;;;;5004330;28;20056;-77
2022/10/29 03:36:34;;;;;;;0.52;0.40;;;14.20;99.90;;;;;;5024830;28;20057;-78
2022/10/29 03:39:01;;;;;;;1.13;0.40;;;14.20;99.90;;;;;;5009142;28;20046;-77
2022/10/29 03:41:28;;;;;;;0.52;0.47;;;14.20;99.90;;;;;;5009191;28;20045;-77
2022/10/29 03:43:55;;;;;;;0.47;0.38;;;14.20;99.90;;;;;;5008555;28;20370;-77
2022/10/29 03:46:26;;;;;;;0.50;0.40;;;14.20;99.90;;;;;;5009354;28;20060;-77
2022/10/29 03:48:53;;;;;;;0.43;0.40;;;14.20;99.90;;;;;;5024433;28;20055;-77
2022/10/29 03:51:20;;;;;;;0.55;0.40;;;14.20;99.90;;;;;;5008217;28;20060;-77
2022/10/29 03:53:47;;;;;;;0.93;0.45;;;14.30;99.90;;;;;;5021288;28;20392;-77
2022/10/29 03:56:14;;;;;;;0.38;0.30;;;14.30;99.90;;;;;;5044887;28;20049;-77
2022/10/29 03:58:41;;;;;;;0.40;0.40;;;14.30;99.90;;;;;;5012274;28;20409;-77
2022/10/29 04:01:08;;;;;;;1.30;0.52;;;14.30;99.90;;;;;;5028453;28;20045;-77
2022/10/29 04:03:35;;;;;;;0.43;0.30;;;14.30;99.90;;;;;;5027465;28;20056;-79
2022/10/29 04:06:09;;;;;;;0.38;0.38;;;14.40;99.90;;;;;;5028081;28;20148;-77
2022/10/29 04:08:36;;;;;;;0.85;0.52;;;14.30;99.90;;;;;;5044601;28;20530;-77
2022/10/29 04:11:03;;;;;;;1.05;0.40;;;14.40;99.90;;;;;;5028345;28;20354;-77
2022/10/29 04:13:30;;;;;;;1.08;0.60;;;14.30;99.90;;;;;;5027761;28;20423;-77
2022/10/29 04:15:56;;;;;;;0.43;0.40;;;14.30;99.90;;;;;;5027829;28;20076;-77
2022/10/29 04:18:23;;;;;;;1.38;0.50;;;14.30;99.90;;;;;;5027303;28;20049;-77
2022/10/29 04:20:50;;;;;;;0.47;0.30;;;14.40;99.90;;;;;;5027772;28;20059;-77
2022/10/29 04:23:37;;;;;;;0.65;0.40;;;14.40;99.90;;;;;;5030390;28;20045;-77
2022/10/29 04:26:24;;;;;;;0.25;0.22;;;14.40;99.90;;;;;;5017019;28;20052;-77
2022/10/29 04:29:10;;;;;;;0.38;0.38;;;14.30;99.90;;;;;;5030451;28;20381;-77
2022/10/29 04:31:37;;;;;;;0.30;0.30;;;14.30;99.90;;;;;;5028231;28;20045;-77
2022/10/29 04:34:04;;;;;;;0.32;0.30;;;14.40;99.90;;;;;;5023191;28;20080;-77
2022/10/29 04:36:31;;;;;;;1.05;0.32;;;14.30;99.90;;;;;;5007772;28;20053;-77
2022/10/29 04:38:58;;;;;;;0.20;0.20;;;14.30;99.90;;;;;;5007535;28;20045;-77
2022/10/29 04:41:25;;;;;;;0.90;0.40;;;14.40;99.90;;;;;;5008614;28;20045;-77
2022/10/29 04:43:51;;;;;;;0.40;0.40;;;14.40;99.90;;;;;;5008050;28;20382;-77
2022/10/29 04:46:19;;;;;;;0.65;0.40;;;14.40;99.90;;;;;;5040957;28;20076;-77
2022/10/29 04:48:45;;;;;;;0.75;0.40;;;14.40;99.90;;;;;;5022379;28;20053;-77
2022/10/29 04:51:20;;;;;;;0.35;0.35;;;14.40;99.90;;;;;;5025763;28;20045;-77
2022/10/29 04:53:46;;;;;;;0.60;0.50;;;14.40;99.90;;;;;;5034430;28;20062;-78
2022/10/29 04:56:14;;;;;;;1.35;0.40;;;14.40;99.90;;;;;;5031661;28;20076;-78
2022/10/29 04:58:41;;;;;;;0.98;0.50;;;14.40;99.90;;;;;;5025689;28;20512;-78
2022/10/29 05:01:09;;;;;;;1.08;0.55;;;14.40;99.90;;;;;;5006168;28;20045;-78
2022/10/29 05:03:36;;;;;;;1.05;0.65;;;14.40;99.90;;;;;;5026749;28;20046;-79
2022/10/29 05:06:06;;;;;;;1.48;0.60;;;14.40;99.90;;;;;;5017474;28;20045;-79
2022/10/29 05:08:32;;;;;;;0.65;0.57;;;14.40;99.90;;;;;;5006311;28;20067;-78
2022/10/29 05:11:03;;;;;;;0.68;0.50;;;14.40;99.90;;;;;;5007631;28;20046;-78
2022/10/29 05:13:30;;;;;;;0.85;0.60;;;14.40;99.90;;;;;;5013146;28;20140;-79
2022/10/29 05:15:57;;;;;;;0.38;0.38;;;14.40;99.90;;;;;;5001928;28;20053;-78
2022/10/29 05:18:24;;;;;;;1.63;0.70;;;14.40;99.90;;;;;;5015931;28;20178;-77
2022/10/29 05:20:54;;;;;;;1.30;0.80;;;14.40;99.90;;;;;;5018610;28;20133;-79
2022/10/29 05:23:21;;;;;;;1.30;0.70;;;14.40;99.90;;;;;;5013556;28;20383;-79
2022/10/29 05:25:50;;;;;;;1.27;0.82;;;14.40;99.90;;;;;;5011899;28;20065;-79
2022/10/29 05:28:21;;;;;;;0.88;0.73;;;14.30;99.90;;;;;;5023279;28;20060;-79
2022/10/29 05:30:49;;;;;;;0.95;0.63;;;14.40;99.90;;;;;;5008977;28;20049;-79
2022/10/29 05:33:18;;;;;;;1.38;0.65;;;14.40;99.90;;;;;;5025704;28;20077;-79
2022/10/29 05:35:45;;;;;;;0.80;0.45;;;14.40;99.90;;;;;;5020724;28;20107;-79
2022/10/29 05:38:12;;;;;;;0.77;0.50;;;14.30;99.90;;;;;;5024907;28;20460;-79
2022/10/29 05:40:41;;;;;;;1.17;0.80;;;14.30;99.90;;;;;;5024171;28;20053;-79
2022/10/29 05:43:08;;;;;;;0.65;0.45;;;14.30;99.90;;;;;;5018481;28;20045;-79
2022/10/29 05:45:35;;;;;;;1.20;0.57;;;14.30;99.90;;;;;;5023431;28;20100;-79
2022/10/29 05:48:02;;;;;;;1.20;0.50;;;14.30;99.90;;;;;;5023723;28;20587;-78
2022/10/29 05:50:29;;;;;;;1.25;0.60;;;14.30;99.90;;;;;;5020753;28;20452;-78
2022/10/29 05:52:57;;;;;;;1.17;0.82;;;14.30;99.90;;;;;;5002912;28;20136;-80
2022/10/29 05:55:25;;;;;;;0.73;0.40;;;14.30;99.90;;;;;;5008934;28;20057;-79
2022/10/29 05:57:59;;;;;;;1.02;0.63;;;14.30;99.90;;;;;;5040902;28;20071;-79
2022/10/29 06:00:27;;;;;;;0.70;0.35;;;14.40;99.90;;;;;;5009228;28;20053;-78
2022/10/29 06:02:54;;;;;;;0.38;0.38;;;14.40;99.90;;;;;;5011687;28;20064;-79
2022/10/29 06:05:22;;;;;;;0.75;0.52;;;14.40;99.90;;;;;;5040590;28;20045;-79
2022/10/29 06:07:55;;;;;;;0.73;0.47;;;14.40;99.90;;;;;;5021049;28;20080;-79
2022/10/29 06:10:23;;;;;;;1.30;0.55;;;14.40;99.90;;;;;;5019018;28;20049;-78
2022/10/29 06:12:50;;;;;;;0.50;0.50;;;14.40;99.90;;;;;;5020304;28;20056;-79
2022/10/29 06:15:17;;;;;;;0.77;0.45;;;14.40;99.90;;;;;;5003876;28;20729;-78
2022/10/29 06:17:44;;;;;;;0.93;0.50;;;14.40;99.90;;;;;;5003467;28;20057;-79
2022/10/29 06:20:12;;;;;;;0.77;0.60;;;14.40;99.90;;;;;;4997946;28;20144;-78
2022/10/29 06:22:38;;;;;;;0.82;0.63;;;14.40;99.90;;;;;;5019518;28;20212;-79
2022/10/29 06:25:06;;;;;;;1.35;0.88;;;14.40;99.90;;;;;;5024409;28;20052;-79
2022/10/29 06:27:32;;;;;;;0.57;0.45;;;14.40;99.90;;;;;;5002110;28;20061;-83
2022/10/29 06:29:59;;;;;;;0.90;0.63;;;14.40;99.90;;;;;;5015531;28;20051;-91
2022/10/29 06:32:27;;;;;;;0.55;0.55;;;14.40;99.90;;;;;;5030692;28;20044;-92
2022/10/29 06:34:54;;;;;;;1.10;0.80;;;14.40;99.90;;;;;;5029872;28;20084;-91
2022/10/29 06:37:21;;;;;;;1.23;0.88;;;14.40;99.90;;;;;;5040866;28;20049;-87
2022/10/29 06:39:47;;;;;;;1.13;0.70;;;14.40;99.90;;;;;;5042038;28;20033;-89
2022/10/29 06:42:14;;;;;;;1.63;0.80;;;14.40;99.90;;;;;;5034348;28;20047;-90
2022/10/29 06:44:41;;;;;;;1.30;0.80;;;14.40;99.90;;;;;;5010125;28;20057;-91
2022/10/29 06:47:08;;;;;;;0.65;0.57;;;14.50;99.90;;;;;;5017561;28;20064;-90
2022/10/29 06:49:34;;;;;;;1.75;0.98;;;14.40;99.90;;;;;;5036620;28;20061;-89
2022/10/29 06:52:01;;;;;;;2.15;1.00;;;14.40;99.90;;;;;;5015541;28;20067;-91
2022/10/29 06:54:28;;;;;;;1.33;0.88;;;14.50;99.90;;;;;;5018922;28;20045;-91
2022/10/29 06:56:55;;;;;;;0.70;0.70;;;14.50;99.90;;;;;;5001839;28;20049;-90
2022/10/29 06:59:23;;;;;;;0.88;0.70;;;14.50;99.90;;;;;;5019220;28;20871;-91
2022/10/29 07:01:50;;;;;;;1.00;0.60;;;14.50;99.90;;;;;;5019267;28;20416;-90
2022/10/29 07:04:17;;;;;;;0.63;0.50;;;14.50;99.90;;;;;;5035043;28;20050;-91
2022/10/29 07:06:44;;;;;;;0.65;0.60;;;14.50;99.90;;;;;;5011575;28;20045;-90
2022/10/29 07:09:12;;;;;;;0.50;0.50;;;14.60;99.90;;;;;;5024030;28;20684;-91
2022/10/29 07:11:39;;;;;;;0.95;0.70;;;14.70;99.90;;;;;;5038587;28;20041;-91
2022/10/29 07:14:08;;;;;;;1.35;0.50;;;14.70;99.90;;;;;;5012705;28;20053;-91
2022/10/29 07:16:35;;;;;;;2.05;0.80;;;14.70;99.90;;;;;;5030621;28;20104;-91
2022/10/29 07:19:03;;;;;;;1.63;0.98;;;14.70;99.90;;;;;;5011726;28;20081;-91
2022/10/29 07:21:30;;;;;;;1.88;0.63;;;14.80;99.90;;;;;;5029734;28;20065;-90
2022/10/29 07:23:57;;;;;;;1.23;0.90;;;14.80;99.90;;;;;;5017405;28;20053;-90
2022/10/29 07:26:24;;;;;;;1.20;0.65;;;14.90;99.90;;;;;;5033296;28;20045;-90
2022/10/29 07:28:55;;;;;;;0.90;0.65;;;15.00;99.90;;;;;;5005448;28;20223;-91
2022/10/29 07:31:22;;;;;;;1.00;0.70;;;15.00;99.90;;;;;;5013228;28;20052;-91
2022/10/29 07:33:49;;;;;;;0.80;0.65;;;15.00;99.90;;;;;;5017531;28;20141;-91
2022/10/29 07:36:16;;;;;;;1.02;0.90;;;15.10;99.90;;;;;;5033165;28;20058;-91
2022/10/29 07:38:43;;;;;;;1.98;1.08;;;15.10;99.90;;;;;;5007886;28;20049;-88
2022/10/29 07:41:10;;;;;;;1.67;1.13;;;15.20;99.90;;;;;;5011143;28;20052;-91
2022/10/29 07:43:37;;;;;;;1.30;1.05;;;15.30;99.90;;;;;;5023534;28;20132;-89
2022/10/29 07:46:05;;;;;;;1.48;1.00;;;15.30;99.90;;;;;;5024822;28;20515;-90
2022/10/29 07:48:32;;;;;;;1.67;1.05;;;15.30;99.90;;;;;;5029606;28;20282;-87
2022/10/29 07:51:00;;;;;;;1.25;0.75;;;15.40;99.90;;;;;;5020294;28;20167;-90
2022/10/29 07:53:30;;;;;;;1.58;0.85;;;15.50;99.90;;;;;;5011518;28;20088;-92
2022/10/29 07:55:57;;;;;;;1.10;0.90;;;15.60;99.90;;;;;;5006052;28;20053;-92
2022/10/29 07:58:24;;;;;;;1.10;0.95;;;15.70;99.90;;;;;;5006117;28;20060;-91
2022/10/29 08:00:51;;;;;;;1.63;1.05;;;15.70;99.90;;;;;;5008893;28;20099;-92
2022/10/29 08:03:20;;;;;;;2.08;1.10;;;15.80;99.90;;;;;;5023176;28;20045;-92
2022/10/29 08:05:48;;;;;;;1.52;1.23;;;15.90;99.90;;;;;;5022749;28;20111;-91
2022/10/29 08:08:22;;;;;;;2.03;1.40;;;16.00;99.90;;;;;;5020154;28;20056;-91
2022/10/29 08:10:50;;;;;;;3.20;1.77;;;16.10;99.90;;;;;;5034701;28;20044;-90
2022/10/29 08:13:16;;;;;;;1.83;1.05;;;16.20;99.90;;;;;;5016638;28;20057;-91
2022/10/29 08:15:45;;;;;;;2.70;1.52;;;16.20;99.90;;;;;;5009099;28;20364;-90
2022/10/29 08:18:16;;;;;;;2.58;1.67;;;16.30;99.90;;;;;;5016063;28;20075;-91
2022/10/29 08:20:43;;;;;;;1.88;1.40;;;16.40;99.90;;;;;;4990492;28;20073;-93
2022/10/29 08:23:11;;;;;;;2.17;1.40;;;16.40;99.90;;;;;;5028609;28;20063;-94
2022/10/29 08:25:43;;;;;;;3.60;1.58;;;16.50;99.90;;;;;;5008775;28;20049;-92
2022/10/29 08:28:11;;;;;;;1.95;1.45;;;16.60;99.90;;;;;;5020774;28;20049;-92
2022/10/29 08:30:38;;;;;;;3.83;1.58;;;16.60;99.90;;;;;;5021331;28;20057;-88
2022/10/29 08:33:05;;;;;;;2.13;1.05;;;16.70;99.90;;;;;;5034225;28;20049;-93
2022/10/29 08:35:32;;;;;;;1.83;1.20;;;16.80;99.90;;;;;;5017114;28;20568;-81
2022/10/29 08:37:59;;;;;;;1.58;1.15;;;16.90;99.90;;;;;;4995532;28;20054;-81
2022/10/29 08:41:00;;;;;;;1.70;1.13;;;17.00;99.90;;;;;;5001937;28;20053;-81
2022/10/29 08:43:32;;;;;;;1.67;1.10;;;17.10;99.90;;;;;;5026732;28;20156;-81
2022/10/29 08:45:59;;;;;;;2.97;1.38;;;17.20;99.90;;;;;;5025796;28;20049;-81
2022/10/29 08:48:35;;;;;;;2.13;1.38;;;17.30;99.90;;;;;;5016967;28;20049;-81
2022/10/29 08:51:27;;;;;;;1.50;1.23;;;17.40;99.90;;;;;;5008832;28;20045;-81
2022/10/29 08:53:54;;;;;;;2.75;1.98;;;17.60;99.90;;;;;;5009732;28;20053;-80
2022/10/29 08:56:46;;;;;;;2.58;1.60;;;17.70;99.90;;;;;;4999934;28;20488;-80
2022/10/29 08:59:14;;;;;;;1.80;1.50;;;17.70;99.90;;;;;;5022691;28;20600;-80
2022/10/29 09:01:41;;;;;;;4.30;1.70;;;17.80;99.90;;;;;;5034843;28;20049;-82
2022/10/29 09:04:24;;;;;;;2.28;1.38;;;17.90;99.90;;;;;;5011528;28;20059;-81
2022/10/29 09:07:10;;;;;;;2.25;1.40;;;18.00;99.90;;;;;;5020554;28;20046;-81
2022/10/29 09:09:37;;;;;;;2.38;1.50;;;18.10;99.90;;;;;;5029428;28;20057;-81
2022/10/29 09:12:23;;;;;;;1.90;1.25;;;18.20;99.90;;;;;;5037801;28;20535;-79
2022/10/29 09:15:04;;;;;;;2.38;1.48;;;18.30;99.90;;;;;;5039632;28;20068;-80
2022/10/29 09:18:16;;;;;;;3.90;1.95;;;18.40;99.90;;;;;;5006187;28;20045;-85
2022/10/29 09:20:59;;;;;;;1.33;1.10;;;18.50;99.90;;;;;;5037612;28;20044;-78
2022/10/29 09:23:43;;;;;;;;;;;18.70;99.90;;;;;;5030096;28;20049;-78
2022/10/29 09:26:17;;;;;;;;;;;18.80;99.90;;;;;;5018171;28;19925;-78
2022/10/29 09:28:58;;;;;;;2.90;1.40;;;18.90;99.90;;;;;;5016005;28;20314;-78
2022/10/29 09:31:34;;;;;;;2.30;1.50;;;19.00;99.90;;;;;;5036915;28;20303;-78
2022/10/29 09:34:03;;;;;;;3.03;1.38;;;19.10;99.90;;;;;;5027032;28;20103;-78
2022/10/29 09:36:30;;;;;;;2.63;1.70;;;19.30;99.90;;;;;;5010578;28;20049;-79
2022/10/29 09:38:58;;;;;;;2.40;1.88;;;19.40;99.90;;;;;;5009163;28;20051;-79
2022/10/29 09:41:26;;;;;;;2.13;1.42;;;19.50;99.90;;;;;;5020314;28;20195;-79
2022/10/29 09:44:03;;;;;;;2.15;1.40;;;19.60;99.90;;;;;;5017221;28;20061;-78
2022/10/29 09:46:36;;;;;;;2.10;1.58;;;19.70;99.90;;;;;;5025315;28;20053;-79
2022/10/29 09:49:02;;;;;;;1.60;1.20;;;19.70;99.90;;;;;;5006414;28;20080;-79
2022/10/29 09:52:09;;;;;;;2.47;1.70;;;19.80;99.90;;;;;;5025921;28;20049;-81
2022/10/29 09:54:36;;;;;;;3.10;1.63;;;19.80;99.90;;;;;;5026591;28;20057;-79
2022/10/29 09:57:03;;;;;;;3.47;1.52;;;19.90;99.90;;;;;;5013458;28;20057;-77
2022/10/29 09:59:43;;;;;;;2.75;1.95;;;20.00;99.90;;;;;;5031733;28;20562;-78
2022/10/29 10:02:25;;;;;;;2.92;2.00;;;20.10;99.90;;;;;;5024768;28;20057;-78
2022/10/29 10:04:55;;;;;;;3.08;2.05;;;20.10;99.90;;;;;;5029021;28;20065;-79
2022/10/29 10:07:22;;;;;;;2.05;1.63;;;20.20;99.90;;;;;;5030425;28;20143;-78
2022/10/29 10:09:56;;;;;;;3.13;1.92;;;20.20;99.90;;;;;;5029717;28;20121;-79
2022/10/29 10:12:36;;;;;;;2.80;1.80;;;20.30;99.90;;;;;;5019253;28;20148;-79
2022/10/29 10:15:16;;;;;;;1.95;1.45;;;20.30;99.90;;;;;;5025422;28;20501;-79
2022/10/29 10:18:04;;;;;;;3.13;1.70;;;20.30;99.90;;;;;;5025847;28;20049;-79
2022/10/29 10:20:40;;;;;;;2.00;1.25;;;20.30;99.90;;;;;;5016697;28;20121;-79
2022/10/29 10:23:21;;;;;;;1.92;1.25;;;20.30;99.90;;;;;;5026521;28;20053;-78
2022/10/29 10:25:49;;;;;;;2.08;1.80;;;20.30;99.90;;;;;;5021339;28;20053;-76
2022/10/29 10:28:28;;;;;;;2.67;1.70;;;20.40;99.90;;;;;;5019820;28;20132;-76
2022/10/29 10:31:14;;;;;;;3.58;1.90;;;20.40;99.90;;;;;;5025703;28;20071;-76
2022/10/29 10:33:51;;;;;;;3.50;1.38;;;20.40;99.90;;;;;;5027492;28;20061;-77
2022/10/29 10:36:23;;;;;;;4.18;2.42;;;20.50;99.90;;;;;;5023363;28;20493;-76
2022/10/29 10:38:57;;;;;;;1.98;1.55;;;20.50;99.90;;;;;;5029101;28;20056;-78
2022/10/29 10:41:28;;;;;;;2.10;1.42;;;20.60;99.90;;;;;;5000500;28;20128;-77
2022/10/29 10:44:00;;;;;;;2.72;1.60;;;20.60;99.90;;;;;;5030552;28;20392;-77
2022/10/29 10:46:33;;;;;;;3.15;1.80;;;20.70;99.90;;;;;;5011651;28;20052;-78
2022/10/29 10:49:02;;;;;;;2.35;1.77;;;20.70;99.90;;;;;;5022499;28;20049;-80
2022/10/29 10:51:30;;;;;;;3.42;1.88;;;20.80;99.90;;;;;;5023882;28;20049;-81
2022/10/29 10:54:02;;;;;;;2.25;1.60;;;20.90;99.90;;;;;;5039541;28;20216;-80
2022/10/29 10:56:29;;;;;;;3.10;1.65;;;21.00;99.90;;;;;;5032915;28;20095;-81
2022/10/29 10:59:08;;;;;;;2.25;1.55;;;21.10;99.90;;;;;;5025776;28;20054;-82
2022/10/29 11:01:37;;;;;;;2.30;1.65;;;21.20;99.90;;;;;;5020065;28;20128;-78
2022/10/29 11:04:32;;;;;;;3.80;1.70;;;21.30;99.90;;;;;;5023014;28;20450;-79
2022/10/29 11:07:01;;;;;;;2.40;1.65;;;21.30;99.90;;;;;;5020586;28;20368;-78
2022/10/29 11:09:39;;;;;;;2.35;1.40;;;21.40;99.90;;;;;;5020269;28;20125;-78
2022/10/29 11:12:09;;;;;;;2.38;1.50;;;21.40;99.90;;;;;;5021421;28;20051;-78
2022/10/29 11:14:50;;;;;;;2.15;1.58;;;21.50;99.90;;;;;;5029966;28;20079;-78
2022/10/29 11:17:25;;;;;;;1.73;1.23;;;21.50;99.90;;;;;;5018802;28;20053;-79
2022/10/29 11:19:52;;;;;;;2.05;1.33;;;21.50;99.90;;;;;;5024252;28;20739;-78
2022/10/29 11:23:12;;;;;;;1.30;1.10;;;21.60;99.90;;;;;;5019111;28;20056;-78
2022/10/29 11:25:42;;;;;;;1.45;1.10;;;21.70;99.90;;;;;;5029699;28;20041;-79
2022/10/29 11:28:33;;;;;;;1.65;1.10;;;21.80;99.90;;;;;;4999715;28;20230;-77
2022/10/29 11:31:19;;;;;;;1.67;1.30;;;21.90;99.90;;;;;;5035684;28;20139;-78
2022/10/29 11:33:54;;;;;;;2.28;1.23;;;22.00;99.90;;;;;;5034535;28;20071;-79
2022/10/29 11:36:24;;;;;;;1.85;1.38;;;22.10;99.90;;;;;;5021494;28;20144;-80
2022/10/29 11:38:55;;;;;;;1.70;1.27;;;22.20;99.90;;;;;;5022194;28;20049;-78
2022/10/29 11:41:37;;;;;;;2.47;1.40;;;22.30;99.90;;;;;;5023282;28;20053;-80
2022/10/29 11:44:19;;;;;;;2.55;1.77;;;22.50;99.90;;;;;;5032381;28;20165;-79
2022/10/29 11:47:17;;;;;;;3.28;1.48;;;22.60;99.90;;;;;;5007089;28;20064;-78
2022/10/29 11:50:03;;;;;;;2.15;1.50;;;22.80;99.90;;;;;;5022626;28;20068;-79
2022/10/29 11:52:36;;;;;;;2.28;1.30;;;23.00;99.90;;;;;;5024767;28;20536;-80
2022/10/29 11:55:29;;;;;;;2.83;1.52;;;23.10;99.90;;;;;;5016029;28;20091;-81
2022/10/29 11:58:24;;;;;;;3.58;1.42;;;23.40;99.90;;;;;;5032120;28;20049;-82
2022/10/29 12:01:36;;;;;;;2.53;1.30;;;23.50;99.90;;;;;;5020016;28;20107;-81
2022/10/29 12:04:17;;;;;;;2.05;1.40;;;23.70;99.90;;;;;;5030284;28;20056;-81
2022/10/29 12:07:13;;;;;;;2.03;1.23;;;23.90;99.90;;;;;;5023770;28;20876;-79
2022/10/29 12:10:05;;;;;;;2.85;1.52;;;24.00;99.90;;;;;;5017491;28;20152;-78
2022/10/29 12:12:43;;;;;;;4.88;2.30;;;24.00;99.90;;;;;;5017143;28;20049;-80
2022/10/29 12:15:25;;;;;;;3.00;1.90;;;24.20;99.90;;;;;;5012704;28;20059;-80
2022/10/29 12:18:07;;;;;;;4.60;2.53;;;24.10;99.90;;;;;;5029119;28;20057;-78
2022/10/29 12:21:08;;;;;;;3.15;2.00;;;24.00;99.90;;;;;;5023885;28;20046;-79
2022/10/29 12:23:56;;;;;;;3.60;1.95;;;24.10;99.90;;;;;;5025431;28;20423;-81
2022/10/29 12:26:28;;;;;;;2.58;1.50;;;24.20;99.90;;;;;;5036622;28;20160;-78
2022/10/29 12:29:11;;;;;;;2.17;1.33;;;24.60;99.90;;;;;;5031527;28;20056;-78
2022/10/29 12:32:12;;;;;;;2.10;1.60;;;25.00;99.90;;;;;;5018097;28;20147;-78
2022/10/29 12:34:44;;;;;;;3.15;1.80;;;25.30;99.90;;;;;;5028268;28;20056;-80
2022/10/29 12:37:17;;;;;;;2.13;1.35;;;25.60;99.90;;;;;;5028462;28;20049;-82
2022/10/29 12:39:48;;;;;;;2.92;1.27;;;25.90;99.90;;;;;;5026361;28;20085;-80
2022/10/29 12:42:23;;;;;;;2.03;1.30;;;26.10;99.90;;;;;;5019939;28;20084;-80
2022/10/29 12:45:18;;;;;;;1.92;1.30;;;26.20;99.90;;;;;;5035865;28;20048;-80
2022/10/29 12:47:48;;;;;;;2.53;1.25;;;26.30;99.90;;;;;;5024548;28;20041;-80
2022/10/29 12:50:25;;;;;;;2.15;1.13;;;26.40;99.90;;;;;;5023298;28;20516;-80
2022/10/29 12:53:23;;;;;;;2.17;1.75;;;26.60;99.90;;;;;;5023319;28;20163;-79
2022/10/29 12:55:50;;;;;;;1.83;1.42;;;27.10;99.90;;;;;;5020586;28;20061;-79
2022/10/29 12:58:55;;;;;;;2.42;1.52;;;27.40;99.90;;;;;;5034202;28;20047;-80
2022/10/29 13:01:41;;;;;;;1.45;1.15;;;27.40;99.90;;;;;;5020238;28;20134;-79
2022/10/29 13:04:32;;;;;;;2.08;1.15;;;27.10;99.90;;;;;;5035853;28;20097;-79
2022/10/29 13:07:21;;;;;;;1.30;1.00;;;26.90;99.90;;;;;;5030680;28;20061;-79
2022/10/29 13:09:49;;;;;;;2.83;1.10;;;26.90;99.90;;;;;;5006235;28;20076;-80
2022/10/29 13:12:52;;;;;;;2.42;1.13;;;26.90;99.90;;;;;;5004284;28;20046;-79
2022/10/29 13:15:23;;;;;;;1.63;1.02;;;27.00;99.90;;;;;;5024173;28;20049;-80